sensor_id;sensor_type;location;lat;lon;timestamp;P1;durP1;ratioP1;P2;durP2;ratioP2
52610;SDS011;38727;40.130;18.292;2024-02-23T00:01:17;11.68;;;6.10;;
52610;SDS011;38727;40.130;18.292;2024-02-23T00:21:13;8.50;;;4.30;;
52610;SDS011;38727;40.130;18.292;2024-02-23T00:23:56;8.75;;;4.72;;
52610;SDS011;38727;40.130;18.292;2024-02-23T00:27:24;9.52;;;4.75;;
52610;SDS011;38727;40.130;18.292;2024-02-23T00:30:58;7.35;;;4.72;;
52610;SDS011;38727;40.130;18.292;2024-02-23T00:34:04;8.18;;;4.30;;
52610;SDS011;38727;40.130;18.292;2024-02-23T01:05:43;13.82;;;5.10;;
52610;SDS011;38727;40.130;18.292;2024-02-23T01:57:22;9.75;;;4.82;;
52610;SDS011;38727;40.130;18.292;2024-02-23T02:13:13;12.43;;;4.68;;
52610;SDS011;38727;40.130;18.292;2024-02-23T02:16:05;9.93;;;4.78;;
52610;SDS011;38727;40.130;18.292;2024-02-23T02:19:13;10.88;;;5.55;;
52610;SDS011;38727;40.130;18.292;2024-02-23T02:27:41;12.70;;;5.50;;
52610;SDS011;38727;40.130;18.292;2024-02-23T03:19:01;6.18;;;4.05;;
52610;SDS011;38727;40.130;18.292;2024-02-23T03:31:54;6.25;;;3.42;;
52610;SDS011;38727;40.130;18.292;2024-02-23T03:39:10;7.25;;;4.35;;
52610;SDS011;38727;40.130;18.292;2024-02-23T03:47:56;10.80;;;5.50;;
52610;SDS011;38727;40.130;18.292;2024-02-23T03:55:13;11.40;;;6.28;;
52610;SDS011;38727;40.130;18.292;2024-02-23T04:11:32;11.48;;;6.40;;
52610;SDS011;38727;40.130;18.292;2024-02-23T04:15:06;11.95;;;5.90;;
52610;SDS011;38727;40.130;18.292;2024-02-23T04:26:18;13.80;;;7.22;;
52610;SDS011;38727;40.130;18.292;2024-02-23T04:29:44;12.70;;;6.55;;
52610;SDS011;38727;40.130;18.292;2024-02-23T04:33:10;10.10;;;6.05;;
52610;SDS011;38727;40.130;18.292;2024-02-23T05:30:06;10.60;;;5.53;;
52610;SDS011;38727;40.130;18.292;2024-02-23T05:33:29;11.23;;;5.13;;
52610;SDS011;38727;40.130;18.292;2024-02-23T05:44:49;9.57;;;5.22;;
52610;SDS011;38727;40.130;18.292;2024-02-23T06:46:34;9.10;;;4.95;;
52610;SDS011;38727;40.130;18.292;2024-02-23T08:01:25;7.20;;;3.10;;
52610;SDS011;38727;40.130;18.292;2024-02-23T08:14:22;7.13;;;3.28;;
52610;SDS011;38727;40.130;18.292;2024-02-23T08:21:50;5.88;;;2.72;;
52610;SDS011;38727;40.130;18.292;2024-02-23T08:25:36;5.28;;;2.80;;
52610;SDS011;38727;40.130;18.292;2024-02-23T08:32:12;9.60;;;2.92;;
52610;SDS011;38727;40.130;18.292;2024-02-23T08:52:25;6.75;;;2.60;;
52610;SDS011;38727;40.130;18.292;2024-02-23T08:55:35;8.13;;;2.70;;
52610;SDS011;38727;40.130;18.292;2024-02-23T08:59:26;6.03;;;2.33;;
52610;SDS011;38727;40.130;18.292;2024-02-23T09:03:13;7.07;;;2.50;;
52610;SDS011;38727;40.130;18.292;2024-02-23T09:06:34;6.15;;;2.33;;
52610;SDS011;38727;40.130;18.292;2024-02-23T09:10:09;6.93;;;1.90;;
52610;SDS011;38727;40.130;18.292;2024-02-23T09:13:58;7.03;;;2.20;;
52610;SDS011;38727;40.130;18.292;2024-02-23T09:20:59;6.28;;;1.90;;
52610;SDS011;38727;40.130;18.292;2024-02-23T09:24:38;5.47;;;1.98;;
52610;SDS011;38727;40.130;18.292;2024-02-23T09:27:59;6.38;;;1.90;;
52610;SDS011;38727;40.130;18.292;2024-02-23T09:30:57;6.03;;;2.00;;
52610;SDS011;38727;40.130;18.292;2024-02-23T09:34:00;5.10;;;2.33;;
52610;SDS011;38727;40.130;18.292;2024-02-23T09:36:57;8.35;;;2.17;;
52610;SDS011;38727;40.130;18.292;2024-02-23T09:40:10;7.65;;;2.00;;
52610;SDS011;38727;40.130;18.292;2024-02-23T09:47:13;13.55;;;2.58;;
52610;SDS011;38727;40.130;18.292;2024-02-23T09:50:03;4.75;;;1.63;;
52610;SDS011;38727;40.130;18.292;2024-02-23T09:53:30;5.53;;;1.67;;
52610;SDS011;38727;40.130;18.292;2024-02-23T09:59:37;5.82;;;1.77;;
52610;SDS011;38727;40.130;18.292;2024-02-23T10:01:33;7.55;;;1.80;;
52610;SDS011;38727;40.130;18.292;2024-02-23T10:05:12;12.55;;;1.77;;
52610;SDS011;38727;40.130;18.292;2024-02-23T10:15:00;6.75;;;1.90;;
52610;SDS011;38727;40.130;18.292;2024-02-23T10:22:29;6.93;;;1.95;;
52610;SDS011;38727;40.130;18.292;2024-02-23T10:25:25;7.93;;;1.77;;
52610;SDS011;38727;40.130;18.292;2024-02-23T10:33:23;6.32;;;1.33;;
52610;SDS011;38727;40.130;18.292;2024-02-23T10:37:05;6.22;;;1.60;;
52610;SDS011;38727;40.130;18.292;2024-02-23T10:44:46;4.25;;;1.48;;
52610;SDS011;38727;40.130;18.292;2024-02-23T10:48:07;4.82;;;1.45;;
52610;SDS011;38727;40.130;18.292;2024-02-23T10:51:19;3.85;;;1.67;;
52610;SDS011;38727;40.130;18.292;2024-02-23T10:54:37;5.43;;;1.33;;
52610;SDS011;38727;40.130;18.292;2024-02-23T11:02:04;4.83;;;2.10;;
52610;SDS011;38727;40.130;18.292;2024-02-23T11:04:58;7.72;;;2.05;;
52610;SDS011;38727;40.130;18.292;2024-02-23T11:07:57;6.40;;;1.58;;
52610;SDS011;38727;40.130;18.292;2024-02-23T11:20:54;4.68;;;1.60;;
52610;SDS011;38727;40.130;18.292;2024-02-23T11:24:15;12.68;;;1.85;;
52610;SDS011;38727;40.130;18.292;2024-02-23T11:27:24;3.13;;;1.65;;
52610;SDS011;38727;40.130;18.292;2024-02-23T11:31:57;7.95;;;1.95;;
52610;SDS011;38727;40.130;18.292;2024-02-23T11:35:16;5.63;;;1.88;;
52610;SDS011;38727;40.130;18.292;2024-02-23T11:41:42;6.53;;;2.22;;
52610;SDS011;38727;40.130;18.292;2024-02-23T11:45:11;14.52;;;2.00;;
52610;SDS011;38727;40.130;18.292;2024-02-23T11:49:05;4.05;;;1.30;;
52610;SDS011;38727;40.130;18.292;2024-02-23T11:51:56;7.15;;;1.60;;
52610;SDS011;38727;40.130;18.292;2024-02-23T11:55:09;3.13;;;1.70;;
52610;SDS011;38727;40.130;18.292;2024-02-23T11:58:29;4.15;;;1.40;;
52610;SDS011;38727;40.130;18.292;2024-02-23T12:01:56;5.40;;;1.42;;
52610;SDS011;38727;40.130;18.292;2024-02-23T12:05:55;6.43;;;1.50;;
52610;SDS011;38727;40.130;18.292;2024-02-23T12:12:43;8.95;;;1.92;;
52610;SDS011;38727;40.130;18.292;2024-02-23T12:19:44;10.68;;;1.70;;
52610;SDS011;38727;40.130;18.292;2024-02-23T12:23:58;5.20;;;1.40;;
52610;SDS011;38727;40.130;18.292;2024-02-23T12:31:31;5.25;;;1.95;;
52610;SDS011;38727;40.130;18.292;2024-02-23T12:34:55;4.57;;;1.50;;
52610;SDS011;38727;40.130;18.292;2024-02-23T12:37:50;7.75;;;1.38;;
52610;SDS011;38727;40.130;18.292;2024-02-23T12:40:52;8.27;;;2.42;;
52610;SDS011;38727;40.130;18.292;2024-02-23T12:51:24;7.55;;;2.35;;
52610;SDS011;38727;40.130;18.292;2024-02-23T12:58:38;12.77;;;1.85;;
52610;SDS011;38727;40.130;18.292;2024-02-23T13:01:32;9.32;;;1.80;;
52610;SDS011;38727;40.130;18.292;2024-02-23T13:09:25;6.53;;;1.60;;
52610;SDS011;38727;40.130;18.292;2024-02-23T13:16:35;6.55;;;1.90;;
52610;SDS011;38727;40.130;18.292;2024-02-23T13:23:19;9.73;;;2.00;;
52610;SDS011;38727;40.130;18.292;2024-02-23T13:29:32;9.32;;;1.58;;
52610;SDS011;38727;40.130;18.292;2024-02-23T13:32:58;6.80;;;1.73;;
52610;SDS011;38727;40.130;18.292;2024-02-23T13:35:57;8.00;;;1.58;;
52610;SDS011;38727;40.130;18.292;2024-02-23T13:38:56;7.50;;;1.85;;
52610;SDS011;38727;40.130;18.292;2024-02-23T13:42:24;10.48;;;1.90;;
52610;SDS011;38727;40.130;18.292;2024-02-23T13:45:32;6.03;;;1.98;;
52610;SDS011;38727;40.130;18.292;2024-02-23T13:49:02;6.60;;;1.58;;
52610;SDS011;38727;40.130;18.292;2024-02-23T13:52:39;8.25;;;1.98;;
52610;SDS011;38727;40.130;18.292;2024-02-23T14:02:16;5.60;;;1.42;;
52610;SDS011;38727;40.130;18.292;2024-02-23T14:09:13;7.07;;;2.25;;
52610;SDS011;38727;40.130;18.292;2024-02-23T14:12:25;7.68;;;2.45;;
52610;SDS011;38727;40.130;18.292;2024-02-23T14:23:07;5.35;;;1.75;;
52610;SDS011;38727;40.130;18.292;2024-02-23T14:26:08;9.65;;;1.80;;
52610;SDS011;38727;40.130;18.292;2024-02-23T14:29:46;8.70;;;2.00;;
52610;SDS011;38727;40.130;18.292;2024-02-23T14:32:26;9.52;;;2.03;;
52610;SDS011;38727;40.130;18.292;2024-02-23T14:35:34;10.73;;;2.78;;
52610;SDS011;38727;40.130;18.292;2024-02-23T14:39:38;6.72;;;2.10;;
52610;SDS011;38727;40.130;18.292;2024-02-23T14:46:39;9.63;;;2.10;;
52610;SDS011;38727;40.130;18.292;2024-02-23T14:49:20;14.57;;;2.23;;
52610;SDS011;38727;40.130;18.292;2024-02-23T14:52:58;7.32;;;1.85;;
52610;SDS011;38727;40.130;18.292;2024-02-23T14:56:11;10.63;;;1.52;;
52610;SDS011;38727;40.130;18.292;2024-02-23T15:07:31;7.95;;;2.38;;
52610;SDS011;38727;40.130;18.292;2024-02-23T15:52:07;8.98;;;2.47;;
52610;SDS011;38727;40.130;18.292;2024-02-23T15:56:10;7.63;;;2.13;;
52610;SDS011;38727;40.130;18.292;2024-02-23T16:08:20;11.25;;;3.30;;
52610;SDS011;38727;40.130;18.292;2024-02-23T16:12:02;16.13;;;3.80;;
52610;SDS011;38727;40.130;18.292;2024-02-23T16:15:04;9.38;;;2.58;;
52610;SDS011;38727;40.130;18.292;2024-02-23T16:18:47;12.77;;;3.63;;
52610;SDS011;38727;40.130;18.292;2024-02-23T16:21:38;13.00;;;4.15;;
52610;SDS011;38727;40.130;18.292;2024-02-23T16:25:38;17.80;;;4.43;;
52610;SDS011;38727;40.130;18.292;2024-02-23T16:30:05;11.25;;;3.03;;
52610;SDS011;38727;40.130;18.292;2024-02-23T16:37:52;11.25;;;3.88;;
52610;SDS011;38727;40.130;18.292;2024-02-23T16:54:07;13.02;;;4.30;;
52610;SDS011;38727;40.130;18.292;2024-02-23T16:56:49;17.20;;;3.85;;
52610;SDS011;38727;40.130;18.292;2024-02-23T16:59:36;20.50;;;7.78;;
52610;SDS011;38727;40.130;18.292;2024-02-23T17:02:40;16.50;;;6.50;;
52610;SDS011;38727;40.130;18.292;2024-02-23T17:05:10;14.60;;;7.40;;
52610;SDS011;38727;40.130;18.292;2024-02-23T17:07:45;31.92;;;8.20;;
52610;SDS011;38727;40.130;18.292;2024-02-23T17:10:29;23.33;;;7.30;;
52610;SDS011;38727;40.130;18.292;2024-02-23T17:13:11;17.20;;;6.30;;
52610;SDS011;38727;40.130;18.292;2024-02-23T17:15:55;11.80;;;4.20;;
52610;SDS011;38727;40.130;18.292;2024-02-23T17:18:54;14.93;;;4.82;;
52610;SDS011;38727;40.130;18.292;2024-02-23T17:21:37;14.25;;;5.70;;
52610;SDS011;38727;40.130;18.292;2024-02-23T17:24:20;13.20;;;4.18;;
52610;SDS011;38727;40.130;18.292;2024-02-23T17:27:09;12.10;;;3.95;;
52610;SDS011;38727;40.130;18.292;2024-02-23T17:29:58;14.95;;;3.92;;
52610;SDS011;38727;40.130;18.292;2024-02-23T17:35:45;13.68;;;4.00;;
52610;SDS011;38727;40.130;18.292;2024-02-23T17:38:38;12.88;;;4.55;;
52610;SDS011;38727;40.130;18.292;2024-02-23T17:41:10;17.17;;;5.07;;
52610;SDS011;38727;40.130;18.292;2024-02-23T17:44:00;10.95;;;3.78;;
52610;SDS011;38727;40.130;18.292;2024-02-23T17:46:31;12.63;;;5.05;;
52610;SDS011;38727;40.130;18.292;2024-02-23T17:49:02;13.10;;;3.70;;
52610;SDS011;38727;40.130;18.292;2024-02-23T17:51:36;8.93;;;3.03;;
52610;SDS011;38727;40.130;18.292;2024-02-23T17:54:09;10.73;;;3.58;;
52610;SDS011;38727;40.130;18.292;2024-02-23T17:56:38;11.32;;;2.78;;
52610;SDS011;38727;40.130;18.292;2024-02-23T17:59:14;20.92;;;5.07;;
52610;SDS011;38727;40.130;18.292;2024-02-23T18:01:45;13.68;;;4.22;;
52610;SDS011;38727;40.130;18.292;2024-02-23T18:04:25;11.57;;;3.70;;
52610;SDS011;38727;40.130;18.292;2024-02-23T18:07:05;17.27;;;4.15;;
52610;SDS011;38727;40.130;18.292;2024-02-23T18:09:39;19.70;;;3.80;;
52610;SDS011;38727;40.130;18.292;2024-02-23T18:12:11;12.18;;;3.65;;
52610;SDS011;38727;40.130;18.292;2024-02-23T18:14:46;12.82;;;4.28;;
52610;SDS011;38727;40.130;18.292;2024-02-23T18:17:29;14.18;;;4.13;;
52610;SDS011;38727;40.130;18.292;2024-02-23T18:20:00;12.32;;;3.90;;
52610;SDS011;38727;40.130;18.292;2024-02-23T18:22:30;10.52;;;3.45;;
52610;SDS011;38727;40.130;18.292;2024-02-23T18:25:10;12.32;;;2.78;;
52610;SDS011;38727;40.130;18.292;2024-02-23T18:27:41;13.85;;;3.47;;
52610;SDS011;38727;40.130;18.292;2024-02-23T18:30:14;11.48;;;3.53;;
52610;SDS011;38727;40.130;18.292;2024-02-23T18:32:43;11.82;;;3.33;;
52610;SDS011;38727;40.130;18.292;2024-02-23T18:35:17;8.23;;;4.47;;
52610;SDS011;38727;40.130;18.292;2024-02-23T18:37:48;10.18;;;3.00;;
52610;SDS011;38727;40.130;18.292;2024-02-23T18:40:28;11.88;;;3.13;;
52610;SDS011;38727;40.130;18.292;2024-02-23T18:43:20;12.48;;;2.85;;
52610;SDS011;38727;40.130;18.292;2024-02-23T18:45:59;15.15;;;4.10;;
52610;SDS011;38727;40.130;18.292;2024-02-23T18:48:36;10.90;;;3.05;;
52610;SDS011;38727;40.130;18.292;2024-02-23T18:51:08;13.30;;;3.47;;
52610;SDS011;38727;40.130;18.292;2024-02-23T18:53:39;11.57;;;4.30;;
52610;SDS011;38727;40.130;18.292;2024-02-23T18:56:11;15.77;;;3.75;;
52610;SDS011;38727;40.130;18.292;2024-02-23T18:58:43;16.27;;;3.58;;
52610;SDS011;38727;40.130;18.292;2024-02-23T19:01:20;13.50;;;3.00;;
52610;SDS011;38727;40.130;18.292;2024-02-23T19:03:55;11.82;;;3.80;;
52610;SDS011;38727;40.130;18.292;2024-02-23T19:06:27;12.68;;;3.30;;
52610;SDS011;38727;40.130;18.292;2024-02-23T19:08:59;12.38;;;3.05;;
52610;SDS011;38727;40.130;18.292;2024-02-23T19:14:03;11.15;;;3.85;;
52610;SDS011;38727;40.130;18.292;2024-02-23T19:16:38;17.80;;;3.65;;
52610;SDS011;38727;40.130;18.292;2024-02-23T19:19:20;9.18;;;3.22;;
52610;SDS011;38727;40.130;18.292;2024-02-23T19:21:51;11.90;;;2.65;;
52610;SDS011;38727;40.130;18.292;2024-02-23T19:24:22;12.05;;;2.90;;
52610;SDS011;38727;40.130;18.292;2024-02-23T19:29:42;12.95;;;3.80;;
52610;SDS011;38727;40.130;18.292;2024-02-23T19:32:16;14.77;;;3.80;;
52610;SDS011;38727;40.130;18.292;2024-02-23T19:34:47;18.35;;;4.47;;
52610;SDS011;38727;40.130;18.292;2024-02-23T19:37:17;18.52;;;4.55;;
52610;SDS011;38727;40.130;18.292;2024-02-23T19:39:48;15.73;;;4.53;;
52610;SDS011;38727;40.130;18.292;2024-02-23T19:42:24;11.40;;;2.58;;
52610;SDS011;38727;40.130;18.292;2024-02-23T19:44:57;8.53;;;2.90;;
52610;SDS011;38727;40.130;18.292;2024-02-23T19:47:52;17.52;;;3.47;;
52610;SDS011;38727;40.130;18.292;2024-02-23T19:50:25;11.68;;;2.97;;
52610;SDS011;38727;40.130;18.292;2024-02-23T19:52:57;11.85;;;3.58;;
52610;SDS011;38727;40.130;18.292;2024-02-23T19:55:54;13.00;;;4.00;;
52610;SDS011;38727;40.130;18.292;2024-02-23T19:58:27;15.02;;;3.33;;
52610;SDS011;38727;40.130;18.292;2024-02-23T20:01:01;14.52;;;3.92;;
52610;SDS011;38727;40.130;18.292;2024-02-23T20:03:38;10.15;;;3.15;;
52610;SDS011;38727;40.130;18.292;2024-02-23T20:06:13;13.10;;;4.00;;
52610;SDS011;38727;40.130;18.292;2024-02-23T20:08:42;12.88;;;3.65;;
52610;SDS011;38727;40.130;18.292;2024-02-23T20:11:19;14.73;;;4.47;;
52610;SDS011;38727;40.130;18.292;2024-02-23T20:13:53;8.13;;;3.13;;
52610;SDS011;38727;40.130;18.292;2024-02-23T20:16:25;12.57;;;3.22;;
52610;SDS011;38727;40.130;18.292;2024-02-23T20:18:58;16.52;;;2.85;;
52610;SDS011;38727;40.130;18.292;2024-02-23T20:21:28;9.48;;;2.95;;
52610;SDS011;38727;40.130;18.292;2024-02-23T20:23:59;11.82;;;3.03;;
52610;SDS011;38727;40.130;18.292;2024-02-23T20:26:30;14.70;;;3.35;;
52610;SDS011;38727;40.130;18.292;2024-02-23T20:29:07;18.15;;;3.75;;
52610;SDS011;38727;40.130;18.292;2024-02-23T20:31:38;14.65;;;4.53;;
52610;SDS011;38727;40.130;18.292;2024-02-23T20:34:25;14.35;;;4.10;;
52610;SDS011;38727;40.130;18.292;2024-02-23T20:36:56;13.45;;;3.78;;
52610;SDS011;38727;40.130;18.292;2024-02-23T20:39:27;15.05;;;4.28;;
52610;SDS011;38727;40.130;18.292;2024-02-23T20:42:10;14.13;;;4.00;;
52610;SDS011;38727;40.130;18.292;2024-02-23T20:44:40;7.78;;;3.40;;
52610;SDS011;38727;40.130;18.292;2024-02-23T20:47:13;17.58;;;4.22;;
52610;SDS011;38727;40.130;18.292;2024-02-23T20:49:49;15.73;;;3.45;;
52610;SDS011;38727;40.130;18.292;2024-02-23T20:52:21;10.68;;;2.65;;
52610;SDS011;38727;40.130;18.292;2024-02-23T20:54:52;12.88;;;3.38;;
52610;SDS011;38727;40.130;18.292;2024-02-23T20:57:24;11.38;;;3.30;;
52610;SDS011;38727;40.130;18.292;2024-02-23T20:59:56;17.15;;;3.20;;
52610;SDS011;38727;40.130;18.292;2024-02-23T21:02:42;16.55;;;3.22;;
52610;SDS011;38727;40.130;18.292;2024-02-23T21:05:14;15.30;;;3.75;;
52610;SDS011;38727;40.130;18.292;2024-02-23T21:07:45;9.52;;;3.70;;
52610;SDS011;38727;40.130;18.292;2024-02-23T21:10:27;12.90;;;3.22;;
52610;SDS011;38727;40.130;18.292;2024-02-23T21:13:01;14.88;;;3.17;;
52610;SDS011;38727;40.130;18.292;2024-02-23T21:15:36;12.05;;;3.25;;
52610;SDS011;38727;40.130;18.292;2024-02-23T21:18:07;13.15;;;3.75;;
52610;SDS011;38727;40.130;18.292;2024-02-23T21:21:11;14.32;;;3.65;;
52610;SDS011;38727;40.130;18.292;2024-02-23T21:23:50;11.88;;;3.60;;
52610;SDS011;38727;40.130;18.292;2024-02-23T21:26:25;11.13;;;3.13;;
52610;SDS011;38727;40.130;18.292;2024-02-23T21:28:57;13.80;;;3.65;;
52610;SDS011;38727;40.130;18.292;2024-02-23T21:31:28;12.38;;;3.13;;
52610;SDS011;38727;40.130;18.292;2024-02-23T21:34:03;11.68;;;3.20;;
52610;SDS011;38727;40.130;18.292;2024-02-23T21:36:37;14.48;;;3.63;;
52610;SDS011;38727;40.130;18.292;2024-02-23T21:39:11;18.17;;;3.70;;
52610;SDS011;38727;40.130;18.292;2024-02-23T21:41:45;16.60;;;4.00;;
52610;SDS011;38727;40.130;18.292;2024-02-23T21:44:18;13.23;;;4.68;;
52610;SDS011;38727;40.130;18.292;2024-02-23T21:46:52;14.50;;;3.60;;
52610;SDS011;38727;40.130;18.292;2024-02-23T21:49:30;11.23;;;3.63;;
52610;SDS011;38727;40.130;18.292;2024-02-23T21:52:05;12.98;;;3.95;;
52610;SDS011;38727;40.130;18.292;2024-02-23T21:54:48;9.80;;;3.40;;
52610;SDS011;38727;40.130;18.292;2024-02-23T21:57:22;13.98;;;3.60;;
52610;SDS011;38727;40.130;18.292;2024-02-23T21:59:55;18.95;;;3.72;;
52610;SDS011;38727;40.130;18.292;2024-02-23T22:02:30;17.67;;;3.60;;
52610;SDS011;38727;40.130;18.292;2024-02-23T22:05:01;13.95;;;3.60;;
52610;SDS011;38727;40.130;18.292;2024-02-23T22:07:34;13.23;;;3.90;;
52610;SDS011;38727;40.130;18.292;2024-02-23T22:10:05;13.65;;;3.65;;
52610;SDS011;38727;40.130;18.292;2024-02-23T22:12:37;11.77;;;3.10;;
52610;SDS011;38727;40.130;18.292;2024-02-23T22:15:10;10.90;;;2.55;;
52610;SDS011;38727;40.130;18.292;2024-02-23T22:17:50;11.88;;;2.50;;
52610;SDS011;38727;40.130;18.292;2024-02-23T22:20:26;11.38;;;3.45;;
52610;SDS011;38727;40.130;18.292;2024-02-23T22:23:04;10.35;;;3.15;;
52610;SDS011;38727;40.130;18.292;2024-02-23T22:25:36;8.95;;;2.95;;
52610;SDS011;38727;40.130;18.292;2024-02-23T22:28:08;16.48;;;3.92;;
52610;SDS011;38727;40.130;18.292;2024-02-23T22:30:49;15.95;;;3.40;;
52610;SDS011;38727;40.130;18.292;2024-02-23T22:33:20;20.33;;;3.72;;
52610;SDS011;38727;40.130;18.292;2024-02-23T22:35:52;9.98;;;2.60;;
52610;SDS011;38727;40.130;18.292;2024-02-23T22:38:33;11.68;;;2.90;;
52610;SDS011;38727;40.130;18.292;2024-02-23T22:41:05;10.82;;;3.15;;
52610;SDS011;38727;40.130;18.292;2024-02-23T22:43:56;16.83;;;3.75;;
52610;SDS011;38727;40.130;18.292;2024-02-23T22:46:29;14.38;;;4.15;;
52610;SDS011;38727;40.130;18.292;2024-02-23T22:49:02;11.95;;;2.95;;
52610;SDS011;38727;40.130;18.292;2024-02-23T22:51:41;10.90;;;3.67;;
52610;SDS011;38727;40.130;18.292;2024-02-23T22:54:14;15.80;;;3.45;;
52610;SDS011;38727;40.130;18.292;2024-02-23T22:56:47;10.27;;;3.17;;
52610;SDS011;38727;40.130;18.292;2024-02-23T22:59:22;11.50;;;3.42;;
52610;SDS011;38727;40.130;18.292;2024-02-23T23:02:00;14.50;;;3.00;;
52610;SDS011;38727;40.130;18.292;2024-02-23T23:04:35;10.00;;;2.58;;
52610;SDS011;38727;40.130;18.292;2024-02-23T23:07:13;11.75;;;3.55;;
52610;SDS011;38727;40.130;18.292;2024-02-23T23:09:47;10.77;;;3.35;;
52610;SDS011;38727;40.130;18.292;2024-02-23T23:12:24;13.50;;;3.25;;
52610;SDS011;38727;40.130;18.292;2024-02-23T23:14:55;11.20;;;3.17;;
52610;SDS011;38727;40.130;18.292;2024-02-23T23:17:30;7.82;;;2.85;;
52610;SDS011;38727;40.130;18.292;2024-02-23T23:20:00;13.80;;;3.10;;
52610;SDS011;38727;40.130;18.292;2024-02-23T23:22:34;11.02;;;3.15;;
52610;SDS011;38727;40.130;18.292;2024-02-23T23:25:07;12.68;;;3.33;;
52610;SDS011;38727;40.130;18.292;2024-02-23T23:27:42;13.18;;;3.17;;
52610;SDS011;38727;40.130;18.292;2024-02-23T23:30:22;15.23;;;2.90;;
52610;SDS011;38727;40.130;18.292;2024-02-23T23:32:56;10.38;;;2.92;;
52610;SDS011;38727;40.130;18.292;2024-02-23T23:35:28;12.88;;;2.83;;
52610;SDS011;38727;40.130;18.292;2024-02-23T23:37:59;14.57;;;2.85;;
52610;SDS011;38727;40.130;18.292;2024-02-23T23:40:33;9.95;;;2.80;;
52610;SDS011;38727;40.130;18.292;2024-02-23T23:43:29;12.43;;;3.00;;
52610;SDS011;38727;40.130;18.292;2024-02-23T23:46:03;11.82;;;2.72;;
52610;SDS011;38727;40.130;18.292;2024-02-23T23:48:35;10.98;;;2.85;;
52610;SDS011;38727;40.130;18.292;2024-02-23T23:51:19;9.98;;;3.40;;
52610;SDS011;38727;40.130;18.292;2024-02-23T23:53:51;14.48;;;3.13;;
52610;SDS011;38727;40.130;18.292;2024-02-23T23:56:25;12.15;;;3.55;;
52610;SDS011;38727;40.130;18.292;2024-02-23T23:59:02;12.48;;;3.05;;
